Glen Cove, New York
Current Conditions -  °F | °C
As of 7:51 PM on Sunday 21 Dec 2014 (Local Time) from KLGA Reporting Station
Overcast Overcast  
Wind Chill: -2°   Ceiling: 1700
Heat Index:   Visibility: 10mi
Dew Point: -2°   Wind: 7mph
Humidity: 78%   Direction: 360°N
Pressure: 30.33"   Gusts: NA
Location:  40.86°N, 73.63°W
Report Text: KLGA 220051Z 36006KT 10SM BKN017 OVC029 02/M02 A3033 RMK AO2 SLP271 T00171017
Loading
Personal Weather Stations






























Interactive Weather Map New forecast layout! Learn more

10-Day Weather Forecast

Advertisements
Track Severe Weather on mobile